| time (UTC) | temp F | wind direction | speed MPH | gust MPH | rain 1hr in | rain 24hr in | rain mn in | humidity % | barometer mb |
| 20260510075144 | 48 | 340 | 2.0 | 2.0 | 0.00 | 0.00 | 0.01 | 99 | 1012.3 |
| 20260510074645 | 48 | 354 | 2.0 | 2.0 | 0.00 | 0.00 | 0.01 | 99 | 1012.3 |
| 20260510074144 | 48 | 21 | 2.0 | 3.0 | 0.00 | 0.00 | 0.01 | 99 | 1011.9 |
| 20260510073744 | 48 | 39 | 3.0 | 5.0 | 0.00 | 0.00 | 0.01 | 99 | 1011.9 |
| 20260510073143 | 48 | 306 | 2.0 | 2.0 | 0.00 | 0.00 | 0.01 | 99 | 1011.9 |
| 20260510072644 | 48 | 28 | 2.0 | 3.0 | 0.00 | 0.00 | 0.01 | 99 | 1011.9 |
| 20260510072143 | 48 | 314 | 1.0 | 2.0 | 0.00 | 0.00 | 0.01 | 99 | 1011.9 |
| 20260510071642 | 48 | 204 | 1.0 | 2.0 | 0.00 | 0.00 | 0.01 | 99 | 1011.9 |
| 20260510071144 | 48 | 316 | 0.0 | 1.0 | 0.00 | 0.00 | 0.01 | 99 | 1011.9 |
| 20260510070141 | 48 | 2 | 2.0 | 2.0 | 0.00 | 0.00 | 0.01 | 99 | 1011.6 |
| 20260510065741 | 48 | 325 | 2.0 | 3.0 | 0.00 | 0.00 | 0.01 | 99 | 1011.9 |
| 20260510065140 | 48 | 330 | 1.0 | 1.0 | 0.00 | 0.00 | 0.01 | 99 | 1011.9 |
| 20260510064741 | 48 | 17 | 2.0 | 3.0 | 0.00 | 0.00 | 0.01 | 99 | 1011.9 |
| 20260510063639 | 48 | 359 | 1.0 | 2.0 | 0.00 | 0.00 | 0.01 | 99 | 1011.7 |
| 20260510063138 | 48 | 5 | 3.0 | 3.0 | 0.00 | 0.00 | 0.01 | 99 | 1011.9 |
| 20260510062639 | 48 | 7 | 2.0 | 2.0 | 0.00 | 0.00 | 0.01 | 99 | 1011.9 |
| 20260510062139 | 48 | 261 | 3.0 | 5.0 | 0.00 | 0.00 | 0.01 | 99 | 1011.9 |
| 20260510061638 | 48 | 352 | 1.0 | 1.0 | 0.00 | 0.00 | 0.01 | 99 | 1012.1 |
| 20260510061137 | 48 | 297 | 1.0 | 2.0 | 0.00 | 0.00 | 0.01 | 99 | 1011.9 |
| 20260510060636 | 48 | 28 | 2.0 | 2.0 | 0.00 | 0.00 | 0.01 | 99 | 1011.9 |
| 20260510060137 | 48 | 210 | 2.0 | 5.0 | 0.00 | 0.00 | 0.01 | 99 | 1011.9 |
| 20260510055638 | 48 | 331 | 2.0 | 2.0 | 0.00 | 0.00 | 0.01 | 99 | 1012.3 |
| 20260510055136 | 48 | 332 | 2.0 | 3.0 | 0.00 | 0.00 | 0.01 | 99 | 1011.9 |
| 20260510054637 | 48 | 356 | 1.0 | 2.0 | 0.00 | 0.00 | 0.01 | 99 | 1011.9 |
| 20260510054136 | 48 | 20 | 2.0 | 2.0 | 0.00 | 0.00 | 0.01 | 99 | 1011.9 |
| 20260510053635 | 48 | 2 | 1.0 | 2.0 | 0.00 | 0.00 | 0.01 | 99 | 1011.9 |
| 20260510053137 | 48 | 0.0 | 0.0 | 0.00 | 0.00 | 0.01 | 99 | 1012.3 | |
| 20260510052635 | 48 | 0.0 | 0.0 | 0.00 | 0.00 | 0.01 | 99 | 1011.9 | |
| 20260510052237 | 48 | 0.0 | 0.0 | 0.00 | 0.00 | 0.01 | 99 | 1012.3 | |
| 20260510051634 | 48 | 0.0 | 0.0 | 0.00 | 0.00 | 0.01 | 99 | 1012.3 | |
| 20260510051133 | 48 | 0.0 | 0.0 | 0.00 | 0.00 | 0.01 | 99 | 1012.3 | |
| 20260510050632 | 48 | 347 | 0.0 | 1.0 | 0.00 | 0.00 | 0.01 | 99 | 1012.3 |
| 20260510050234 | 47 | 337 | 1.0 | 2.0 | 0.00 | 0.00 | 0.01 | 99 | 1012.3 |
| 20260510045636 | 47 | 356 | 0.0 | 1.0 | 0.00 | 0.00 | 0.01 | 99 | 1012.1 |
| 20260510045132 | 47 | 348 | 1.0 | 1.0 | 0.00 | 0.00 | 0.01 | 99 | 1012.3 |
| 20260510044631 | 47 | 14 | 1.0 | 2.0 | 0.00 | 0.00 | 0.01 | 99 | 1012.3 |
| 20260510044132 | 47 | 348 | 1.0 | 1.0 | 0.00 | 0.00 | 0.01 | 99 | 1012.4 |
| 20260510043632 | 47 | 351 | 1.0 | 1.0 | 0.00 | 0.00 | 0.01 | 99 | 1012.3 |
| 20260510043131 | 47 | 354 | 1.0 | 1.0 | 0.00 | 0.00 | 0.01 | 99 | 1012.3 |
| 20260510042630 | 47 | 41 | 2.0 | 3.0 | 0.00 | 0.00 | 0.00 | 99 | 1012.6 |
| 20260510042129 | 47 | 334 | 1.0 | 2.0 | 0.00 | 0.00 | 0.00 | 99 | 1012.3 |
| 20260510041630 | 47 | 16 | 2.0 | 2.0 | 0.00 | 0.00 | 0.00 | 99 | 1012.3 |
| 20260510041130 | 47 | 358 | 1.0 | 2.0 | 0.00 | 0.00 | 0.00 | 99 | 1012.6 |
| 20260510040629 | 47 | 347 | 1.0 | 1.0 | 0.00 | 0.00 | 0.00 | 99 | 1012.3 |
| 20260510040128 | 47 | 350 | 1.0 | 1.0 | 0.00 | 0.00 | 0.00 | 99 | 1012.3 |
| 20260510035730 | 47 | 35 | 2.0 | 3.0 | 0.00 | 0.00 | 0.48 | 99 | 1012.3 |
| 20260510035128 | 47 | 18 | 2.0 | 3.0 | 0.00 | 0.00 | 0.48 | 99 | 1012.6 |
| 20260510034628 | 47 | 11 | 1.0 | 2.0 | 0.00 | 0.00 | 0.48 | 99 | 1012.4 |
| 20260510034127 | 47 | 30 | 3.0 | 3.0 | 0.00 | 0.00 | 0.48 | 99 | 1012.6 |
| 20260510033628 | 47 | 81 | 4.0 | 5.0 | 0.00 | 0.00 | 0.48 | 99 | 1012.3 |
| 20260510033127 | 47 | 357 | 1.0 | 1.0 | 0.00 | 0.00 | 0.48 | 99 | 1012.6 |
| 20260510032626 | 47 | 31 | 2.0 | 3.0 | 0.00 | 0.00 | 0.48 | 99 | 1012.3 |
| 20260510032125 | 47 | 360 | 1.0 | 2.0 | 0.00 | 0.00 | 0.48 | 99 | 1012.3 |
| 20260510031625 | 47 | 302 | 2.0 | 3.0 | 0.00 | 0.00 | 0.48 | 99 | 1012.3 |
| 20260510031126 | 47 | 340 | 1.0 | 1.0 | 0.00 | 0.00 | 0.48 | 99 | 1012.6 |
| 20260510030625 | 47 | 51 | 3.0 | 3.0 | 0.00 | 0.00 | 0.48 | 99 | 1012.3 |
| 20260510030124 | 47 | 354 | 1.0 | 1.0 | 0.00 | 0.00 | 0.48 | 99 | 1012.6 |
| 20260510025625 | 47 | 341 | 1.0 | 1.0 | 0.00 | 0.00 | 0.48 | 99 | 1012.4 |
| 20260510025126 | 47 | 287 | 2.0 | 3.0 | 0.00 | 0.00 | 0.48 | 99 | 1012.3 |
| 20260510024626 | 47 | 63 | 2.0 | 3.0 | 0.00 | 0.00 | 0.48 | 99 | 1012.3 |
| 20260510023625 | 47 | 48 | 2.0 | 3.0 | 0.00 | 0.00 | 0.48 | 99 | 1012.6 |
| 20260510023124 | 47 | 32 | 2.0 | 2.0 | 0.00 | 0.00 | 0.48 | 99 | 1012.6 |
| 20260510022623 | 47 | 351 | 1.0 | 1.0 | 0.00 | 0.00 | 0.48 | 99 | 1013.0 |
| 20260510022122 | 47 | 14 | 2.0 | 3.0 | 0.00 | 0.00 | 0.48 | 99 | 1013.0 |
| 20260510021623 | 47 | 346 | 1.0 | 2.0 | 0.00 | 0.00 | 0.48 | 99 | 1013.0 |
| 20260510021122 | 47 | 15 | 2.0 | 3.0 | 0.00 | 0.00 | 0.48 | 99 | 1013.0 |
| 20260510020120 | 47 | 360 | 1.0 | 2.0 | 0.00 | 0.00 | 0.48 | 99 | 1013.0 |
| 20260510015622 | 47 | 345 | 1.0 | 1.0 | 0.00 | 0.00 | 0.48 | 99 | 1013.0 |
| 20260510015121 | 47 | 349 | 1.0 | 1.0 | 0.00 | 0.00 | 0.48 | 99 | 1013.0 |
| 20260510014620 | 47 | 347 | 1.0 | 1.0 | 0.00 | 0.00 | 0.48 | 99 | 1013.0 |
| 20260510013619 | 47 | 358 | 2.0 | 2.0 | 0.00 | 0.00 | 0.48 | 99 | 1013.0 |
| 20260510013120 | 47 | 350 | 1.0 | 1.0 | 0.00 | 0.00 | 0.48 | 99 | 1013.0 |
| 20260510012619 | 47 | 348 | 2.0 | 2.0 | 0.00 | 0.00 | 0.48 | 99 | 1013.0 |
| 20260510012118 | 47 | 65 | 3.0 | 6.0 | 0.00 | 0.00 | 0.48 | 99 | 1012.6 |
| 20260510011619 | 47 | 20 | 2.0 | 3.0 | 0.00 | 0.00 | 0.48 | 99 | 1013.0 |
| 20260510011118 | 47 | 356 | 1.0 | 1.0 | 0.00 | 0.00 | 0.48 | 99 | 1012.6 |
| 20260510010618 | 47 | 326 | 0.0 | 1.0 | 0.00 | 0.00 | 0.48 | 99 | 1013.0 |
| 20260510010220 | 47 | 326 | 2.0 | 2.0 | 0.00 | 0.00 | 0.48 | 99 | 1012.6 |
| 20260510005616 | 47 | 345 | 1.0 | 1.0 | 0.00 | 0.00 | 0.48 | 99 | 1012.6 |
| 20260510004646 | 47 | 342 | 1.0 | 2.0 | 0.00 | 0.00 | 0.48 | 99 | 1012.6 |
| 20260510004146 | 47 | 5 | 2.0 | 2.0 | 0.00 | 0.00 | 0.48 | 99 | 1012.6 |
| 20260510003646 | 47 | 46 | 2.0 | 3.0 | 0.00 | 0.00 | 0.48 | 99 | 1012.6 |
| 20260510003144 | 47 | 202 | 3.0 | 3.0 | 0.00 | 0.00 | 0.48 | 99 | 1012.6 |
| 20260510002647 | 47 | 349 | 1.0 | 2.0 | 0.00 | 0.00 | 0.48 | 99 | 1012.4 |
| 20260510002144 | 47 | 349 | 1.0 | 1.0 | 0.00 | 0.00 | 0.48 | 99 | 1012.3 |
| 20260510001643 | 47 | 128 | 4.0 | 5.0 | 0.00 | 0.00 | 0.48 | 99 | 1012.3 |
| 20260510001143 | 47 | 42 | 2.0 | 3.0 | 0.00 | 0.00 | 0.48 | 99 | 1012.3 |
| 20260510000645 | 47 | 193 | 4.0 | 6.0 | 0.00 | 0.00 | 0.48 | 99 | 1012.6 |
| 20260510000143 | 47 | 135 | 4.0 | 5.0 | 0.00 | 0.00 | 0.48 | 99 | 1012.3 |
| 20260509235644 | 47 | 294 | 2.0 | 3.0 | 0.00 | 0.00 | 0.48 | 99 | 1012.3 |
| 20260509235143 | 47 | 96 | 2.0 | 5.0 | 0.00 | 0.00 | 0.48 | 99 | 1012.3 |
| 20260509234646 | 46 | 48 | 2.0 | 3.0 | 0.00 | 0.00 | 0.48 | 99 | 1012.3 |
| 20260509234142 | 46 | 264 | 3.0 | 3.0 | 0.00 | 0.00 | 0.48 | 99 | 1012.3 |
| 20260509233641 | 46 | 303 | 1.0 | 2.0 | 0.00 | 0.00 | 0.48 | 99 | 1012.3 |
| 20260509233145 | 46 | 55 | 2.0 | 3.0 | 0.00 | 0.00 | 0.48 | 99 | 1012.3 |
| 20260509232646 | 46 | 6 | 2.0 | 2.0 | 0.00 | 0.00 | 0.48 | 99 | 1012.3 |
| 20260509232141 | 46 | 32 | 2.0 | 3.0 | 0.00 | 0.00 | 0.48 | 99 | 1012.3 |
| 20260509231640 | 46 | 34 | 2.0 | 3.0 | 0.00 | 0.00 | 0.48 | 99 | 1011.9 |
| 20260509230640 | 46 | 26 | 1.0 | 2.0 | 0.00 | 0.00 | 0.48 | 99 | 1012.3 |
| 20260509230241 | 46 | 341 | 2.0 | 3.0 | 0.00 | 0.00 | 0.48 | 99 | 1012.3 |
| 20260509225638 | 46 | 235 | 3.0 | 5.0 | 0.00 | 0.00 | 0.48 | 99 | 1012.3 |
| 20260509224657 | 46 | 89 | 3.0 | 6.0 | 0.00 | 0.00 | 0.48 | 99 | 1012.3 |
| 20260509223136 | 46 | 23 | 2.0 | 2.0 | 0.00 | 0.00 | 0.48 | 99 | 1012.3 |
| 20260509222638 | 46 | 319 | 1.0 | 2.0 | 0.00 | 0.00 | 0.48 | 99 | 1012.3 |
| 20260509222137 | 46 | 14 | 2.0 | 3.0 | 0.00 | 0.00 | 0.48 | 99 | 1012.3 |
| 20260509221135 | 46 | 342 | 1.0 | 2.0 | 0.00 | 0.00 | 0.48 | 99 | 1012.3 |
| 20260509220636 | 46 | 308 | 2.0 | 3.0 | 0.00 | 0.00 | 0.48 | 99 | 1012.3 |
| 20260509220135 | 46 | 99 | 4.0 | 7.0 | 0.00 | 0.00 | 0.48 | 99 | 1012.3 |
| 20260509215737 | 46 | 344 | 1.0 | 2.0 | 0.00 | 0.00 | 0.48 | 99 | 1012.3 |
| 20260509215134 | 46 | 134 | 4.0 | 7.0 | 0.00 | 0.00 | 0.48 | 99 | 1012.3 |
| 20260509214633 | 46 | 79 | 3.0 | 5.0 | 0.00 | 0.00 | 0.48 | 99 | 1012.4 |
| 20260509214134 | 46 | 140 | 4.0 | 6.0 | 0.00 | 0.00 | 0.48 | 99 | 1012.6 |
| 20260509213635 | 46 | 138 | 4.0 | 6.0 | 0.00 | 0.00 | 0.48 | 99 | 1012.6 |
| 20260509213133 | 45 | 88 | 3.0 | 5.0 | 0.00 | 0.00 | 0.48 | 99 | 1012.6 |
| 20260509212632 | 45 | 323 | 2.0 | 3.0 | 0.00 | 0.00 | 0.48 | 99 | 1012.6 |
| 20260509212134 | 45 | 304 | 2.0 | 3.0 | 0.00 | 0.00 | 0.48 | 99 | 1012.6 |
| 20260509211632 | 45 | 66 | 2.0 | 3.0 | 0.00 | 0.00 | 0.48 | 99 | 1012.8 |
| 20260509211131 | 45 | 257 | 2.0 | 2.0 | 0.00 | 0.00 | 0.48 | 99 | 1012.6 |
| 20260509210632 | 45 | 31 | 2.0 | 3.0 | 0.00 | 0.00 | 0.48 | 99 | 1012.6 |
| 20260509210132 | 45 | 63 | 3.0 | 3.0 | 0.00 | 0.00 | 0.48 | 99 | 1013.0 |
| 20260509205631 | 45 | 158 | 4.0 | 6.0 | 0.00 | 0.00 | 0.48 | 99 | 1013.0 |
| 20260509205130 | 45 | 113 | 3.0 | 5.0 | 0.00 | 0.00 | 0.48 | 99 | 1013.0 |
| 20260509204629 | 45 | 354 | 2.0 | 2.0 | 0.00 | 0.00 | 0.48 | 99 | 1013.0 |
| 20260509204130 | 45 | 55 | 2.0 | 3.0 | 0.00 | 0.00 | 0.48 | 99 | 1013.0 |
| 20260509203630 | 45 | 50 | 3.0 | 5.0 | 0.00 | 0.00 | 0.48 | 99 | 1013.3 |
| 20260509203129 | 45 | 169 | 4.0 | 5.0 | 0.00 | 0.00 | 0.47 | 99 | 1013.1 |
| 20260509202628 | 45 | 134 | 4.0 | 6.0 | 0.00 | 0.00 | 0.47 | 99 | 1013.3 |
| 20260509202132 | 45 | 166 | 6.0 | 7.0 | 0.00 | 0.00 | 0.46 | 99 | 1013.0 |
| 20260509201629 | 45 | 91 | 3.0 | 3.0 | 0.00 | 0.00 | 0.46 | 99 | 1013.0 |
| 20260509201128 | 45 | 169 | 5.0 | 7.0 | 0.00 | 0.00 | 0.46 | 99 | 1013.0 |
| 20260509200627 | 44 | 150 | 5.0 | 7.0 | 0.00 | 0.00 | 0.46 | 99 | 1013.0 |
| 20260509200126 | 45 | 22 | 2.0 | 3.0 | 0.00 | 0.00 | 0.45 | 99 | 1013.0 |
| 20260509195727 | 44 | 195 | 4.0 | 7.0 | 0.00 | 0.00 | 0.45 | 99 | 1013.0 |
| 20260509195127 | 44 | 112 | 3.0 | 5.0 | 0.00 | 0.00 | 0.45 | 99 | 1013.0 |
| 20260509194125 | 44 | 178 | 4.0 | 6.0 | 0.00 | 0.00 | 0.44 | 99 | 1013.1 |
| 20260509193626 | 44 | 32 | 3.0 | 3.0 | 0.00 | 0.00 | 0.43 | 99 | 1013.3 |
| 20260509193125 | 44 | 146 | 3.0 | 5.0 | 0.00 | 0.00 | 0.43 | 99 | 1013.3 |
| 20260509192624 | 44 | 152 | 4.0 | 5.0 | 0.00 | 0.00 | 0.42 | 99 | 1013.3 |
| 20260509192225 | 44 | 51 | 2.0 | 3.0 | 0.00 | 0.00 | 0.42 | 99 | 1013.3 |
| 20260509191624 | 44 | 147 | 4.0 | 6.0 | 0.00 | 0.00 | 0.41 | 99 | 1013.3 |
| 20260509191123 | 44 | 52 | 2.0 | 3.0 | 0.00 | 0.00 | 0.40 | 99 | 1013.7 |
| 20260509190622 | 44 | 131 | 5.0 | 7.0 | 0.00 | 0.00 | 0.39 | 99 | 1013.7 |
| 20260509190123 | 44 | 177 | 5.0 | 7.0 | 0.00 | 0.00 | 0.38 | 99 | 1013.7 |
| 20260509185622 | 44 | 131 | 5.0 | 8.0 | 0.00 | 0.00 | 0.38 | 99 | 1013.7 |
| 20260509184724 | 44 | 151 | 5.0 | 6.0 | 0.00 | 0.00 | 0.36 | 99 | 1013.7 |
| 20260509184122 | 44 | 120 | 4.0 | 5.0 | 0.00 | 0.00 | 0.35 | 99 | 1013.7 |
| 20260509183621 | 44 | 134 | 4.0 | 7.0 | 0.00 | 0.00 | 0.34 | 99 | 1013.7 |
| 20260509182622 | 44 | 209 | 3.0 | 5.0 | 0.00 | 0.00 | 0.33 | 99 | 1014.0 |
| 20260509182121 | 43 | 301 | 2.0 | 3.0 | 0.00 | 0.00 | 0.32 | 99 | 1014.0 |
| 20260509181620 | 43 | 125 | 5.0 | 7.0 | 0.00 | 0.00 | 0.32 | 99 | 1014.0 |
| 20260509181121 | 44 | 151 | 6.0 | 7.0 | 0.00 | 0.00 | 0.31 | 99 | 1014.0 |
| 20260509180618 | 44 | 143 | 4.0 | 6.0 | 0.00 | 0.00 | 0.31 | 99 | 1014.0 |
| 20260509180119 | 44 | 136 | 3.0 | 5.0 | 0.00 | 0.00 | 0.30 | 99 | 1014.0 |
| 20260509175619 | 43 | 152 | 5.0 | 7.0 | 0.00 | 0.00 | 0.29 | 99 | 1014.0 |
| 20260509175118 | 43 | 142 | 4.0 | 6.0 | 0.00 | 0.00 | 0.29 | 99 | 1014.2 |
| 20260509174622 | 43 | 155 | 5.0 | 8.0 | 0.00 | 0.00 | 0.28 | 99 | 1014.0 |
| 20260509174219 | 43 | 124 | 5.0 | 7.0 | 0.00 | 0.00 | 0.28 | 99 | 1014.0 |
| 20260509173618 | 43 | 189 | 5.0 | 7.0 | 0.00 | 0.00 | 0.27 | 99 | 1014.2 |
| 20260509173117 | 43 | 164 | 4.0 | 6.0 | 0.00 | 0.00 | 0.26 | 99 | 1014.2 |
| 20260509172118 | 43 | 298 | 3.0 | 3.0 | 0.00 | 0.00 | 0.25 | 99 | 1014.0 |
| 20260509171617 | 43 | 147 | 4.0 | 6.0 | 0.00 | 0.00 | 0.24 | 99 | 1014.4 |
| 20260509171116 | 43 | 102 | 3.0 | 5.0 | 0.00 | 0.00 | 0.23 | 99 | 1014.4 |
| 20260509170645 | 43 | 140 | 4.0 | 6.0 | 0.00 | 0.00 | 0.22 | 99 | 1014.4 |
| 20260509170147 | 43 | 129 | 3.0 | 5.0 | 0.00 | 0.00 | 0.21 | 99 | 1014.4 |
| 20260509165645 | 43 | 154 | 5.0 | 7.0 | 0.00 | 0.00 | 0.20 | 99 | 1014.4 |
| 20260509165144 | 43 | 33 | 2.0 | 3.0 | 0.00 | 0.00 | 0.19 | 99 | 1014.4 |
| 20260509164643 | 43 | 92 | 3.0 | 3.0 | 0.00 | 0.00 | 0.19 | 99 | 1014.5 |
| 20260509164145 | 43 | 12 | 2.0 | 3.0 | 0.00 | 0.00 | 0.18 | 99 | 1014.7 |
| 20260509163644 | 42 | 316 | 2.0 | 2.0 | 0.00 | 0.00 | 0.17 | 99 | 1014.7 |
| 20260509163143 | 42 | 352 | 1.0 | 2.0 | 0.00 | 0.00 | 0.17 | 99 | 1014.7 |
| 20260509162642 | 42 | 122 | 4.0 | 7.0 | 0.00 | 0.00 | 0.16 | 99 | 1014.7 |
| 20260509162141 | 42 | 106 | 3.0 | 5.0 | 0.00 | 0.00 | 0.16 | 99 | 1014.7 |
| 20260509161643 | 43 | 354 | 1.0 | 2.0 | 0.00 | 0.00 | 0.16 | 99 | 1015.1 |
| 20260509161142 | 42 | 52 | 2.0 | 3.0 | 0.00 | 0.00 | 0.15 | 99 | 1015.1 |
| 20260509160641 | 42 | 288 | 3.0 | 3.0 | 0.00 | 0.00 | 0.15 | 99 | 1015.1 |
| 20260509160140 | 42 | 2 | 2.0 | 2.0 | 0.00 | 0.00 | 0.14 | 99 | 1015.1 |
| 20260509155641 | 42 | 338 | 1.0 | 1.0 | 0.00 | 0.00 | 0.14 | 99 | 1015.1 |
| 20260509155140 | 42 | 286 | 2.0 | 3.0 | 0.00 | 0.00 | 0.13 | 99 | 1015.1 |
| 20260509154640 | 42 | 305 | 2.0 | 3.0 | 0.00 | 0.00 | 0.13 | 99 | 1015.1 |
| 20260509154141 | 42 | 153 | 4.0 | 6.0 | 0.00 | 0.00 | 0.12 | 99 | 1015.4 |
| 20260509153640 | 42 | 322 | 2.0 | 3.0 | 0.00 | 0.00 | 0.12 | 99 | 1015.2 |
| 20260509153139 | 41 | 324 | 2.0 | 2.0 | 0.00 | 0.00 | 0.11 | 99 | 1015.4 |
| 20260509152740 | 41 | 111 | 3.0 | 5.0 | 0.00 | 0.00 | 0.11 | 99 | 1015.4 |
| 20260509152139 | 41 | 51 | 3.0 | 5.0 | 0.00 | 0.00 | 0.10 | 99 | 1015.4 |
| 20260509151638 | 41 | 39 | 3.0 | 3.0 | 0.00 | 0.00 | 0.10 | 99 | 1015.4 |
| 20260509151137 | 41 | 339 | 2.0 | 2.0 | 0.00 | 0.00 | 0.09 | 99 | 1015.8 |
| 20260509150636 | 41 | 14 | 2.0 | 2.0 | 0.00 | 0.00 | 0.09 | 99 | 1015.4 |
| 20260509145639 | 41 | 295 | 2.0 | 3.0 | 0.00 | 0.00 | 0.07 | 99 | 1015.4 |
| 20260509144637 | 41 | 25 | 3.0 | 5.0 | 0.00 | 0.00 | 0.06 | 99 | 1015.4 |
| 20260509144139 | 41 | 40 | 3.0 | 5.0 | 0.00 | 0.00 | 0.05 | 99 | 1015.4 |
| 20260509143636 | 41 | 5 | 2.0 | 2.0 | 0.00 | 0.00 | 0.05 | 99 | 1015.4 |
| 20260509143135 | 41 | 34 | 1.0 | 2.0 | 0.00 | 0.00 | 0.04 | 99 | 1015.1 |
| 20260509142135 | 41 | 21 | 2.0 | 2.0 | 0.00 | 0.00 | 0.04 | 99 | 1015.1 |
| 20260509141635 | 41 | 20 | 2.0 | 3.0 | 0.00 | 0.00 | 0.03 | 99 | 1015.2 |
| 20260509141135 | 41 | 336 | 1.0 | 1.0 | 0.00 | 0.00 | 0.03 | 99 | 1015.4 |
| 20260509140636 | 41 | 343 | 0.0 | 1.0 | 0.00 | 0.00 | 0.03 | 99 | 1015.1 |
| 20260509140134 | 41 | 21 | 2.0 | 2.0 | 0.00 | 0.00 | 0.03 | 99 | 1015.2 |
| 20260509135634 | 41 | 243 | 1.0 | 2.0 | 0.00 | 0.00 | 0.02 | 98 | 1015.1 |
| 20260509135135 | 41 | 133 | 3.0 | 5.0 | 0.00 | 0.00 | 0.02 | 97 | 1015.1 |
| 20260509134635 | 42 | 227 | 3.0 | 5.0 | 0.00 | 0.00 | 0.01 | 96 | 1015.1 |
| 20260509134131 | 41 | 348 | 1.0 | 2.0 | 0.00 | 0.00 | 0.01 | 95 | 1015.1 |
| 20260509133632 | 41 | 215 | 3.0 | 6.0 | 0.00 | 0.00 | 0.01 | 94 | 1015.1 |
| 20260509133134 | 42 | 342 | 2.0 | 3.0 | 0.00 | 0.00 | 0.00 | 94 | 1015.1 |
| 20260509132630 | 42 | 4 | 1.0 | 3.0 | 0.00 | 0.00 | 0.00 | 93 | 1015.1 |
| 20260509132130 | 42 | 343 | 1.0 | 2.0 | 0.00 | 0.00 | 0.00 | 93 | 1015.1 |
| 20260509131130 | 42 | 349 | 1.0 | 1.0 | 0.00 | 0.00 | 0.00 | 91 | 1015.1 |
| 20260509130128 | 41 | 18 | 2.0 | 2.0 | 0.00 | 0.00 | 0.00 | 89 | 1015.1 |
| 20260509125630 | 42 | 24 | 3.0 | 3.0 | 0.00 | 0.00 | 0.00 | 87 | 1015.1 |
| 20260509125129 | 42 | 193 | 3.0 | 5.0 | 0.00 | 0.00 | 0.00 | 86 | 1015.1 |
| 20260509124628 | 42 | 100 | 3.0 | 3.0 | 0.00 | 0.00 | 0.00 | 84 | 1015.1 |
| 20260509124127 | 42 | 131 | 4.0 | 5.0 | 0.00 | 0.00 | 0.00 | 83 | 1015.1 |
| 20260509123630 | 42 | 199 | 3.0 | 5.0 | 0.00 | 0.00 | 0.00 | 82 | 1015.1 |
| 20260509122229 | 42 | 41 | 3.0 | 3.0 | 0.00 | 0.00 | 0.00 | 82 | 1015.1 |
| 20260509121727 | 41 | 63 | 3.0 | 5.0 | 0.00 | 0.00 | 0.00 | 82 | 1015.4 |
| 20260509121126 | 41 | 169 | 4.0 | 6.0 | 0.00 | 0.00 | 0.00 | 82 | 1015.1 |
| 20260509120726 | 41 | 110 | 3.0 | 6.0 | 0.00 | 0.00 | 0.00 | 82 | 1015.4 |
| 20260509120126 | 41 | 22 | 3.0 | 3.0 | 0.00 | 0.00 | 0.00 | 82 | 1015.4 |
| 20260509115625 | 41 | 66 | 3.0 | 3.0 | 0.00 | 0.00 | 0.00 | 83 | 1015.4 |
| 20260509115124 | 41 | 357 | 2.0 | 2.0 | 0.00 | 0.00 | 0.00 | 82 | 1015.4 |
| 20260509114624 | 41 | 318 | 2.0 | 2.0 | 0.00 | 0.00 | 0.00 | 83 | 1015.4 |
| 20260509114125 | 41 | 17 | 2.0 | 2.0 | 0.00 | 0.00 | 0.00 | 83 | 1015.2 |
| 20260509113627 | 41 | 55 | 3.0 | 5.0 | 0.00 | 0.00 | 0.00 | 83 | 1015.1 |
| 20260509113228 | 41 | 28 | 3.0 | 3.0 | 0.00 | 0.00 | 0.00 | 82 | 1015.4 |
| 20260509112622 | 40 | 33 | 2.0 | 3.0 | 0.00 | 0.00 | 0.00 | 83 | 1015.2 |
| 20260509112222 | 40 | 360 | 2.0 | 2.0 | 0.00 | 0.00 | 0.00 | 85 | 1015.4 |
| 20260509111623 | 40 | 339 | 0.0 | 1.0 | 0.00 | 0.00 | 0.00 | 85 | 1015.4 |
| 20260509111122 | 40 | 0.0 | 0.0 | 0.00 | 0.00 | 0.00 | 84 | 1015.4 | |
| 20260509110621 | 40 | 354 | 1.0 | 1.0 | 0.00 | 0.00 | 0.00 | 85 | 1015.4 |
| 20260509110120 | 39 | 354 | 1.0 | 2.0 | 0.00 | 0.00 | 0.00 | 85 | 1015.4 |
| 20260509105621 | 39 | 354 | 1.0 | 2.0 | 0.00 | 0.00 | 0.00 | 85 | 1015.4 |
| 20260509104620 | 0 | 0.0 | 0.0 | 0.00 | 0.00 | 0.00 | 1015.1 | ||
| 20260509104122 | 39 | 17 | 2.0 | 2.0 | 0.00 | 0.00 | 0.00 | 86 | 1015.4 |
| 20260509102618 | 39 | 65 | 3.0 | 3.0 | 0.00 | 0.00 | 0.00 | 86 | 1015.1 |
| 20260509101617 | 39 | 19 | 2.0 | 2.0 | 0.00 | 0.00 | 0.00 | 86 | 1015.1 |
| 20260509101119 | 39 | 340 | 1.0 | 2.0 | 0.00 | 0.00 | 0.00 | 85 | 1015.1 |
| 20260509100617 | 39 | 351 | 1.0 | 1.0 | 0.00 | 0.00 | 0.00 | 84 | 1015.1 |
| 20260509100117 | 39 | 0.0 | 0.0 | 0.00 | 0.00 | 0.00 | 84 | 1015.1 | |
| 20260509095616 | 40 | 353 | 1.0 | 2.0 | 0.00 | 0.00 | 0.00 | 83 | 1015.1 |
| 20260509095117 | 40 | 346 | 1.0 | 2.0 | 0.00 | 0.00 | 0.00 | 83 | 1015.2 |
| 20260509094617 | 39 | 273 | 2.0 | 3.0 | 0.00 | 0.00 | 0.00 | 83 | 1015.1 |
| 20260509094117 | 39 | 309 | 1.0 | 3.0 | 0.00 | 0.00 | 0.00 | 84 | 1015.1 |
| 20260509093647 | 39 | 74 | 3.0 | 3.0 | 0.00 | 0.00 | 0.00 | 85 | 1015.1 |
| 20260509093146 | 38 | 0 | 2.0 | 2.0 | 0.00 | 0.00 | 0.00 | 87 | 1015.1 |
| 20260509092645 | 37 | 350 | 1.0 | 1.0 | 0.00 | 0.00 | 0.00 | 88 | 1015.1 |
| 20260509092144 | 36 | 0.0 | 0.0 | 0.00 | 0.00 | 0.00 | 91 | 1015.1 | |
| 20260509091643 | 35 | 334 | 1.0 | 1.0 | 0.00 | 0.00 | 0.00 | 93 | 1015.1 |
| 20260509091145 | 35 | 0.0 | 0.0 | 0.00 | 0.00 | 0.00 | 93 | 1015.1 | |
| 20260509090647 | 35 | 0.0 | 0.0 | 0.00 | 0.00 | 0.00 | 93 | 1015.1 | |
| 20260509090143 | 35 | 326 | 1.0 | 1.0 | 0.00 | 0.00 | 0.00 | 92 | 1014.9 |
| 20260509085645 | 35 | 326 | 1.0 | 1.0 | 0.00 | 0.00 | 0.00 | 92 | 1015.1 |
| 20260509085143 | 36 | 356 | 1.0 | 2.0 | 0.00 | 0.00 | 0.00 | 91 | 1014.7 |
| 20260509084646 | 35 | 0.0 | 0.0 | 0.00 | 0.00 | 0.00 | 93 | 1014.7 | |
| 20260509084242 | 34 | 340 | 1.0 | 1.0 | 0.00 | 0.00 | 0.00 | 93 | 1014.9 |
| 20260509083644 | 34 | 336 | 0.0 | 1.0 | 0.00 | 0.00 | 0.00 | 94 | 1014.7 |
| 20260509083140 | 34 | 331 | 0.0 | 1.0 | 0.00 | 0.00 | 0.00 | 93 | 1014.4 |
| 20260509082643 | 0 | 0.0 | 0.0 | 0.00 | 0.00 | 0.00 | 1014.4 | ||
| 20260509082140 | 0 | 0.0 | 0.0 | 0.00 | 0.00 | 0.00 | 1014.4 | ||
| 20260509081639 | 34 | 326 | 1.0 | 1.0 | 0.00 | 0.00 | 0.00 | 92 | 1014.4 |
| 20260509081140 | 34 | 326 | 1.0 | 1.0 | 0.00 | 0.00 | 0.00 | 92 | 1014.4 |
| 20260509080639 | 34 | 342 | 2.0 | 2.0 | 0.00 | 0.00 | 0.00 | 91 | 1014.4 |
| 20260509080141 | 34 | 342 | 2.0 | 2.0 | 0.00 | 0.00 | 0.00 | 91 | 1014.4 |
| 20260509075638 | 34 | 323 | 2.0 | 2.0 | 0.00 | 0.00 | 0.00 | 91 | 1014.2 |